sensor_id;sensor_type;location;lat;lon;timestamp;P1;durP1;ratioP1;P2;durP2;ratioP2
38085;SDS011;23896;50.678;10.924;2024-03-08T03:19:57;32.28;;;19.38;;
38085;SDS011;23896;50.678;10.924;2024-03-08T03:22:23;28.60;;;19.02;;
38085;SDS011;23896;50.678;10.924;2024-03-08T03:24:50;29.15;;;19.00;;
38085;SDS011;23896;50.678;10.924;2024-03-08T03:27:18;31.27;;;20.60;;
38085;SDS011;23896;50.678;10.924;2024-03-08T03:29:45;28.10;;;19.55;;
38085;SDS011;23896;50.678;10.924;2024-03-08T03:32:12;31.27;;;19.85;;
38085;SDS011;23896;50.678;10.924;2024-03-08T03:34:40;31.45;;;20.65;;
38085;SDS011;23896;50.678;10.924;2024-03-08T03:37:09;29.27;;;19.92;;
38085;SDS011;23896;50.678;10.924;2024-03-08T03:39:39;29.92;;;20.27;;
38085;SDS011;23896;50.678;10.924;2024-03-08T03:42:15;32.67;;;19.23;;
38085;SDS011;23896;50.678;10.924;2024-03-08T03:44:44;33.55;;;21.40;;
38085;SDS011;23896;50.678;10.924;2024-03-08T03:47:13;27.48;;;18.58;;
38085;SDS011;23896;50.678;10.924;2024-03-08T03:49:41;31.23;;;19.40;;
38085;SDS011;23896;50.678;10.924;2024-03-08T03:52:10;31.20;;;19.75;;
38085;SDS011;23896;50.678;10.924;2024-03-08T03:54:58;28.88;;;18.52;;
38085;SDS011;23896;50.678;10.924;2024-03-08T03:57:49;25.92;;;17.92;;
38085;SDS011;23896;50.678;10.924;2024-03-08T04:00:26;29.98;;;17.90;;
38085;SDS011;23896;50.678;10.924;2024-03-08T04:02:52;28.45;;;17.08;;
38085;SDS011;23896;50.678;10.924;2024-03-08T04:05:21;29.83;;;18.42;;
38085;SDS011;23896;50.678;10.924;2024-03-08T04:07:51;31.58;;;18.02;;
38085;SDS011;23896;50.678;10.924;2024-03-08T05:03:02;31.83;;;19.83;;
38085;SDS011;23896;50.678;10.924;2024-03-08T06:38:41;32.92;;;20.08;;
38085;SDS011;23896;50.678;10.924;2024-03-08T06:41:15;35.45;;;20.80;;
38085;SDS011;23896;50.678;10.924;2024-03-08T13:56:59;14.93;;;12.07;;
38085;SDS011;23896;50.678;10.924;2024-03-08T13:59:28;18.02;;;12.98;;
38085;SDS011;23896;50.678;10.924;2024-03-08T14:01:57;17.38;;;11.88;;
38085;SDS011;23896;50.678;10.924;2024-03-08T14:04:24;17.17;;;11.90;;
38085;SDS011;23896;50.678;10.924;2024-03-08T14:06:51;18.60;;;12.25;;
38085;SDS011;23896;50.678;10.924;2024-03-08T14:09:21;17.35;;;11.60;;
38085;SDS011;23896;50.678;10.924;2024-03-08T14:11:56;16.23;;;11.13;;
38085;SDS011;23896;50.678;10.924;2024-03-08T14:14:23;17.17;;;12.00;;
38085;SDS011;23896;50.678;10.924;2024-03-08T14:16:50;16.50;;;11.98;;
38085;SDS011;23896;50.678;10.924;2024-03-08T14:19:22;18.80;;;12.70;;
38085;SDS011;23896;50.678;10.924;2024-03-08T14:21:49;19.27;;;12.43;;
38085;SDS011;23896;50.678;10.924;2024-03-08T14:24:18;20.33;;;12.05;;
38085;SDS011;23896;50.678;10.924;2024-03-08T14:26:44;14.70;;;11.48;;
38085;SDS011;23896;50.678;10.924;2024-03-08T14:29:14;19.50;;;12.57;;
38085;SDS011;23896;50.678;10.924;2024-03-08T14:31:40;24.05;;;12.05;;
38085;SDS011;23896;50.678;10.924;2024-03-08T14:34:08;16.70;;;11.60;;
38085;SDS011;23896;50.678;10.924;2024-03-08T14:36:37;13.13;;;10.85;;
38085;SDS011;23896;50.678;10.924;2024-03-08T14:39:03;15.70;;;11.60;;
38085;SDS011;23896;50.678;10.924;2024-03-08T14:41:30;17.83;;;12.00;;
38085;SDS011;23896;50.678;10.924;2024-03-08T14:43:56;18.80;;;13.35;;
38085;SDS011;23896;50.678;10.924;2024-03-08T14:46:26;16.60;;;11.70;;
38085;SDS011;23896;50.678;10.924;2024-03-08T14:48:53;22.35;;;14.85;;
38085;SDS011;23896;50.678;10.924;2024-03-08T14:51:19;39.03;;;22.38;;
38085;SDS011;23896;50.678;10.924;2024-03-08T14:53:51;36.42;;;21.70;;
38085;SDS011;23896;50.678;10.924;2024-03-08T14:56:17;24.35;;;15.05;;
38085;SDS011;23896;50.678;10.924;2024-03-08T14:58:43;24.58;;;15.30;;
38085;SDS011;23896;50.678;10.924;2024-03-08T15:01:11;16.80;;;11.63;;
38085;SDS011;23896;50.678;10.924;2024-03-08T15:03:39;16.67;;;12.68;;
38085;SDS011;23896;50.678;10.924;2024-03-08T15:06:06;15.55;;;11.35;;
38085;SDS011;23896;50.678;10.924;2024-03-08T15:08:33;20.95;;;12.20;;
38085;SDS011;23896;50.678;10.924;2024-03-08T15:11:00;29.25;;;11.23;;
38085;SDS011;23896;50.678;10.924;2024-03-08T15:13:26;14.75;;;10.85;;
38085;SDS011;23896;50.678;10.924;2024-03-08T15:16:02;16.35;;;10.75;;
38085;SDS011;23896;50.678;10.924;2024-03-08T15:18:31;23.02;;;11.35;;
38085;SDS011;23896;50.678;10.924;2024-03-08T15:21:02;29.02;;;16.98;;
38085;SDS011;23896;50.678;10.924;2024-03-08T15:23:33;15.77;;;10.88;;
38085;SDS011;23896;50.678;10.924;2024-03-08T15:26:02;14.55;;;11.85;;
38085;SDS011;23896;50.678;10.924;2024-03-08T15:28:38;15.90;;;11.30;;
38085;SDS011;23896;50.678;10.924;2024-03-08T15:31:06;16.92;;;10.65;;
38085;SDS011;23896;50.678;10.924;2024-03-08T15:33:33;11.93;;;9.82;;
38085;SDS011;23896;50.678;10.924;2024-03-08T15:36:03;15.30;;;10.90;;
38085;SDS011;23896;50.678;10.924;2024-03-08T15:38:40;15.93;;;11.98;;
38085;SDS011;23896;50.678;10.924;2024-03-08T15:41:15;13.93;;;11.50;;
38085;SDS011;23896;50.678;10.924;2024-03-08T15:43:43;15.25;;;11.40;;
38085;SDS011;23896;50.678;10.924;2024-03-08T15:46:10;13.18;;;9.90;;
38085;SDS011;23896;50.678;10.924;2024-03-08T15:48:40;14.07;;;10.05;;
38085;SDS011;23896;50.678;10.924;2024-03-08T15:51:08;14.90;;;10.88;;
38085;SDS011;23896;50.678;10.924;2024-03-08T15:53:37;16.77;;;12.98;;
38085;SDS011;23896;50.678;10.924;2024-03-08T15:56:03;14.68;;;11.75;;
38085;SDS011;23896;50.678;10.924;2024-03-08T15:58:31;14.15;;;11.05;;
38085;SDS011;23896;50.678;10.924;2024-03-08T16:01:01;12.80;;;10.45;;
38085;SDS011;23896;50.678;10.924;2024-03-08T16:03:32;13.38;;;10.07;;
38085;SDS011;23896;50.678;10.924;2024-03-08T16:05:58;18.15;;;12.50;;
38085;SDS011;23896;50.678;10.924;2024-03-08T16:08:27;13.38;;;9.93;;
38085;SDS011;23896;50.678;10.924;2024-03-08T16:10:54;15.38;;;11.30;;
38085;SDS011;23896;50.678;10.924;2024-03-08T16:13:27;15.93;;;10.77;;
38085;SDS011;23896;50.678;10.924;2024-03-08T16:15:54;16.75;;;13.10;;
38085;SDS011;23896;50.678;10.924;2024-03-08T16:18:20;17.50;;;12.50;;
38085;SDS011;23896;50.678;10.924;2024-03-08T16:20:49;15.55;;;11.27;;
38085;SDS011;23896;50.678;10.924;2024-03-08T16:23:16;15.00;;;11.18;;
38085;SDS011;23896;50.678;10.924;2024-03-08T16:25:43;17.30;;;12.52;;
38085;SDS011;23896;50.678;10.924;2024-03-08T16:28:09;16.58;;;12.32;;
38085;SDS011;23896;50.678;10.924;2024-03-08T16:30:39;15.77;;;11.98;;
38085;SDS011;23896;50.678;10.924;2024-03-08T16:35:59;20.27;;;14.93;;
38085;SDS011;23896;50.678;10.924;2024-03-08T16:38:29;18.05;;;12.68;;
38085;SDS011;23896;50.678;10.924;2024-03-08T16:40:56;18.92;;;13.63;;
38085;SDS011;23896;50.678;10.924;2024-03-08T16:43:26;17.65;;;13.10;;
38085;SDS011;23896;50.678;10.924;2024-03-08T16:46:01;19.80;;;14.75;;
38085;SDS011;23896;50.678;10.924;2024-03-08T16:48:29;18.55;;;13.18;;
38085;SDS011;23896;50.678;10.924;2024-03-08T16:50:57;16.70;;;13.52;;
38085;SDS011;23896;50.678;10.924;2024-03-08T16:53:25;18.17;;;13.48;;
38085;SDS011;23896;50.678;10.924;2024-03-08T16:55:55;19.27;;;14.27;;
38085;SDS011;23896;50.678;10.924;2024-03-08T16:58:26;19.98;;;14.20;;
38085;SDS011;23896;50.678;10.924;2024-03-08T17:00:53;22.17;;;16.23;;
38085;SDS011;23896;50.678;10.924;2024-03-08T17:03:19;24.40;;;17.45;;
38085;SDS011;23896;50.678;10.924;2024-03-08T17:05:51;32.15;;;21.38;;
38085;SDS011;23896;50.678;10.924;2024-03-08T17:08:24;31.83;;;21.77;;
38085;SDS011;23896;50.678;10.924;2024-03-08T17:11:01;25.15;;;19.38;;
38085;SDS011;23896;50.678;10.924;2024-03-08T17:13:42;24.25;;;17.25;;
38085;SDS011;23896;50.678;10.924;2024-03-08T17:16:14;72.53;;;43.50;;
38085;SDS011;23896;50.678;10.924;2024-03-08T17:18:43;26.42;;;17.98;;
38085;SDS011;23896;50.678;10.924;2024-03-08T17:21:10;28.48;;;19.42;;
38085;SDS011;23896;50.678;10.924;2024-03-08T17:29:47;28.10;;;19.50;;
38085;SDS011;23896;50.678;10.924;2024-03-08T17:32:28;33.03;;;20.98;;
38085;SDS011;23896;50.678;10.924;2024-03-08T17:35:00;45.90;;;31.58;;
38085;SDS011;23896;50.678;10.924;2024-03-08T17:37:29;39.10;;;26.73;;
38085;SDS011;23896;50.678;10.924;2024-03-08T17:40:11;41.60;;;26.67;;
38085;SDS011;23896;50.678;10.924;2024-03-08T17:45:46;55.77;;;32.80;;
38085;SDS011;23896;50.678;10.924;2024-03-08T17:48:13;53.05;;;30.58;;
38085;SDS011;23896;50.678;10.924;2024-03-08T17:50:46;46.60;;;28.65;;
38085;SDS011;23896;50.678;10.924;2024-03-08T17:53:15;27.65;;;18.73;;
38085;SDS011;23896;50.678;10.924;2024-03-08T17:55:44;22.63;;;17.08;;
38085;SDS011;23896;50.678;10.924;2024-03-08T17:58:12;25.92;;;17.73;;
38085;SDS011;23896;50.678;10.924;2024-03-08T18:00:43;26.83;;;18.35;;
38085;SDS011;23896;50.678;10.924;2024-03-08T18:03:12;40.08;;;26.17;;
38085;SDS011;23896;50.678;10.924;2024-03-08T18:05:42;31.30;;;22.38;;
38085;SDS011;23896;50.678;10.924;2024-03-08T18:08:13;66.32;;;44.78;;
38085;SDS011;23896;50.678;10.924;2024-03-08T18:10:43;23.73;;;17.27;;
38085;SDS011;23896;50.678;10.924;2024-03-08T18:13:16;21.17;;;15.82;;
38085;SDS011;23896;50.678;10.924;2024-03-08T18:15:47;20.52;;;15.00;;
38085;SDS011;23896;50.678;10.924;2024-03-08T18:18:24;20.52;;;14.68;;
38085;SDS011;23896;50.678;10.924;2024-03-08T18:21:07;23.38;;;16.00;;
38085;SDS011;23896;50.678;10.924;2024-03-08T18:26:38;24.10;;;16.23;;
38085;SDS011;23896;50.678;10.924;2024-03-08T18:29:07;24.52;;;17.33;;
38085;SDS011;23896;50.678;10.924;2024-03-08T18:31:35;22.17;;;16.60;;
38085;SDS011;23896;50.678;10.924;2024-03-08T18:37:08;25.30;;;17.55;;
38085;SDS011;23896;50.678;10.924;2024-03-08T18:39:38;25.95;;;18.75;;
38085;SDS011;23896;50.678;10.924;2024-03-08T18:42:11;31.02;;;19.60;;
38085;SDS011;23896;50.678;10.924;2024-03-08T18:44:39;29.92;;;19.38;;
38085;SDS011;23896;50.678;10.924;2024-03-08T18:53:24;50.73;;;33.13;;
38085;SDS011;23896;50.678;10.924;2024-03-08T18:56:01;67.13;;;42.17;;
38085;SDS011;23896;50.678;10.924;2024-03-08T18:58:43;64.75;;;39.53;;
38085;SDS011;23896;50.678;10.924;2024-03-08T19:07:47;41.50;;;29.05;;
38085;SDS011;23896;50.678;10.924;2024-03-08T19:13:21;29.80;;;20.83;;
38085;SDS011;23896;50.678;10.924;2024-03-08T19:18:52;43.73;;;28.87;;
38085;SDS011;23896;50.678;10.924;2024-03-08T19:24:26;45.60;;;28.55;;
38085;SDS011;23896;50.678;10.924;2024-03-08T19:33:23;27.38;;;19.25;;
38085;SDS011;23896;50.678;10.924;2024-03-08T19:45:04;39.25;;;26.65;;
38085;SDS011;23896;50.678;10.924;2024-03-08T19:56:31;68.82;;;40.78;;
38085;SDS011;23896;50.678;10.924;2024-03-08T19:59:03;79.57;;;44.08;;
38085;SDS011;23896;50.678;10.924;2024-03-08T20:01:39;45.40;;;29.20;;
38085;SDS011;23896;50.678;10.924;2024-03-08T20:04:12;49.17;;;31.58;;
38085;SDS011;23896;50.678;10.924;2024-03-08T20:06:57;50.85;;;32.13;;
38085;SDS011;23896;50.678;10.924;2024-03-08T20:09:43;40.47;;;25.23;;
38085;SDS011;23896;50.678;10.924;2024-03-08T20:12:16;47.13;;;30.38;;
38085;SDS011;23896;50.678;10.924;2024-03-08T20:14:43;51.88;;;32.88;;
38085;SDS011;23896;50.678;10.924;2024-03-08T20:20:13;56.60;;;35.92;;
38085;SDS011;23896;50.678;10.924;2024-03-08T20:34:41;68.28;;;42.50;;
38085;SDS011;23896;50.678;10.924;2024-03-08T20:37:07;48.22;;;32.28;;
38085;SDS011;23896;50.678;10.924;2024-03-08T20:39:45;50.83;;;33.88;;
38085;SDS011;23896;50.678;10.924;2024-03-08T20:42:26;57.60;;;37.72;;
38085;SDS011;23896;50.678;10.924;2024-03-08T21:07:14;35.75;;;23.13;;
38085;SDS011;23896;50.678;10.924;2024-03-08T21:10:27;41.08;;;26.80;;
38085;SDS011;23896;50.678;10.924;2024-03-08T21:13:09;29.65;;;20.35;;
38085;SDS011;23896;50.678;10.924;2024-03-08T21:16:00;38.47;;;26.05;;
38085;SDS011;23896;50.678;10.924;2024-03-08T21:18:38;45.42;;;28.80;;
38085;SDS011;23896;50.678;10.924;2024-03-08T21:21:17;37.80;;;24.95;;
38085;SDS011;23896;50.678;10.924;2024-03-08T21:24:01;29.98;;;20.08;;
38085;SDS011;23896;50.678;10.924;2024-03-08T21:26:50;53.55;;;32.70;;
38085;SDS011;23896;50.678;10.924;2024-03-08T21:29:32;35.15;;;23.27;;
38085;SDS011;23896;50.678;10.924;2024-03-08T21:32:39;30.08;;;19.27;;
38085;SDS011;23896;50.678;10.924;2024-03-08T21:35:20;30.08;;;21.08;;
